sensor_id;sensor_type;location;lat;lon;timestamp;P1;durP1;ratioP1;P2;durP2;ratioP2
77080;SDS011;66009;53.150;18.160;2023-04-25T00:00:38;7.00;;;3.50;;
77080;SDS011;66009;53.150;18.160;2023-04-25T00:03:20;7.10;;;3.80;;
77080;SDS011;66009;53.150;18.160;2023-04-25T00:05:47;6.20;;;3.60;;
77080;SDS011;66009;53.150;18.160;2023-04-25T00:08:14;6.50;;;3.30;;
77080;SDS011;66009;53.150;18.160;2023-04-25T00:10:40;6.10;;;3.50;;
77080;SDS011;66009;53.150;18.160;2023-04-25T00:13:07;6.20;;;3.30;;
77080;SDS011;66009;53.150;18.160;2023-04-25T00:15:34;5.90;;;3.60;;
77080;SDS011;66009;53.150;18.160;2023-04-25T00:18:02;5.00;;;3.30;;
77080;SDS011;66009;53.150;18.160;2023-04-25T00:20:28;5.10;;;3.10;;
77080;SDS011;66009;53.150;18.160;2023-04-25T00:22:56;6.60;;;3.60;;
77080;SDS011;66009;53.150;18.160;2023-04-25T00:25:22;5.30;;;3.50;;
77080;SDS011;66009;53.150;18.160;2023-04-25T00:27:49;6.00;;;3.50;;
77080;SDS011;66009;53.150;18.160;2023-04-25T00:30:16;7.10;;;3.60;;
77080;SDS011;66009;53.150;18.160;2023-04-25T00:32:42;7.60;;;3.80;;
77080;SDS011;66009;53.150;18.160;2023-04-25T00:35:09;5.40;;;3.50;;
77080;SDS011;66009;53.150;18.160;2023-04-25T00:37:36;6.10;;;3.20;;
77080;SDS011;66009;53.150;18.160;2023-04-25T00:40:04;5.60;;;3.20;;
77080;SDS011;66009;53.150;18.160;2023-04-25T00:42:32;5.10;;;3.40;;
77080;SDS011;66009;53.150;18.160;2023-04-25T00:44:58;5.10;;;3.30;;
77080;SDS011;66009;53.150;18.160;2023-04-25T00:47:25;5.30;;;3.20;;
77080;SDS011;66009;53.150;18.160;2023-04-25T00:49:52;5.80;;;2.80;;
77080;SDS011;66009;53.150;18.160;2023-04-25T00:52:19;6.20;;;2.90;;
77080;SDS011;66009;53.150;18.160;2023-04-25T00:54:46;4.20;;;2.70;;
77080;SDS011;66009;53.150;18.160;2023-04-25T00:57:12;5.30;;;3.30;;
77080;SDS011;66009;53.150;18.160;2023-04-25T00:59:39;5.10;;;3.40;;
77080;SDS011;66009;53.150;18.160;2023-04-25T01:02:08;5.90;;;3.00;;
77080;SDS011;66009;53.150;18.160;2023-04-25T01:04:36;6.20;;;3.50;;
77080;SDS011;66009;53.150;18.160;2023-04-25T01:07:02;4.50;;;3.00;;
77080;SDS011;66009;53.150;18.160;2023-04-25T01:09:29;8.20;;;3.60;;
77080;SDS011;66009;53.150;18.160;2023-04-25T01:11:56;5.30;;;2.80;;
77080;SDS011;66009;53.150;18.160;2023-04-25T01:14:23;6.50;;;2.80;;
77080;SDS011;66009;53.150;18.160;2023-04-25T01:16:50;5.20;;;3.20;;
77080;SDS011;66009;53.150;18.160;2023-04-25T01:19:17;5.90;;;2.60;;
77080;SDS011;66009;53.150;18.160;2023-04-25T01:21:46;6.40;;;2.80;;
77080;SDS011;66009;53.150;18.160;2023-04-25T01:24:13;6.00;;;2.90;;
77080;SDS011;66009;53.150;18.160;2023-04-25T01:26:40;4.50;;;2.40;;
77080;SDS011;66009;53.150;18.160;2023-04-25T01:29:10;4.60;;;2.80;;
77080;SDS011;66009;53.150;18.160;2023-04-25T01:31:37;5.60;;;3.20;;
77080;SDS011;66009;53.150;18.160;2023-04-25T01:34:05;4.60;;;2.50;;
77080;SDS011;66009;53.150;18.160;2023-04-25T01:36:31;5.90;;;3.00;;
77080;SDS011;66009;53.150;18.160;2023-04-25T01:38:58;4.40;;;2.70;;
77080;SDS011;66009;53.150;18.160;2023-04-25T01:41:24;5.80;;;2.90;;
77080;SDS011;66009;53.150;18.160;2023-04-25T01:43:51;5.70;;;3.40;;
77080;SDS011;66009;53.150;18.160;2023-04-25T01:46:18;5.10;;;3.00;;
77080;SDS011;66009;53.150;18.160;2023-04-25T01:48:44;5.50;;;3.00;;
77080;SDS011;66009;53.150;18.160;2023-04-25T01:51:11;5.40;;;2.90;;
77080;SDS011;66009;53.150;18.160;2023-04-25T01:53:38;5.40;;;2.80;;
77080;SDS011;66009;53.150;18.160;2023-04-25T01:56:06;5.50;;;2.60;;
77080;SDS011;66009;53.150;18.160;2023-04-25T01:58:34;5.90;;;2.80;;
77080;SDS011;66009;53.150;18.160;2023-04-25T02:01:01;4.40;;;2.20;;
77080;SDS011;66009;53.150;18.160;2023-04-25T02:03:30;6.00;;;2.40;;
77080;SDS011;66009;53.150;18.160;2023-04-25T02:05:57;4.60;;;2.70;;
77080;SDS011;66009;53.150;18.160;2023-04-25T02:08:25;5.10;;;2.70;;
77080;SDS011;66009;53.150;18.160;2023-04-25T02:10:54;4.80;;;2.60;;
77080;SDS011;66009;53.150;18.160;2023-04-25T02:13:21;4.90;;;3.00;;
77080;SDS011;66009;53.150;18.160;2023-04-25T02:16:13;4.10;;;2.40;;
77080;SDS011;66009;53.150;18.160;2023-04-25T02:18:40;5.20;;;2.30;;
77080;SDS011;66009;53.150;18.160;2023-04-25T02:21:06;4.20;;;2.40;;
77080;SDS011;66009;53.150;18.160;2023-04-25T02:23:33;4.30;;;2.50;;
77080;SDS011;66009;53.150;18.160;2023-04-25T02:26:00;6.10;;;2.50;;
77080;SDS011;66009;53.150;18.160;2023-04-25T02:28:26;3.90;;;2.40;;
77080;SDS011;66009;53.150;18.160;2023-04-25T02:30:53;4.70;;;2.30;;
77080;SDS011;66009;53.150;18.160;2023-04-25T02:33:19;4.20;;;1.90;;
77080;SDS011;66009;53.150;18.160;2023-04-25T02:35:47;5.50;;;2.10;;
77080;SDS011;66009;53.150;18.160;2023-04-25T02:38:13;4.40;;;2.30;;
77080;SDS011;66009;53.150;18.160;2023-04-25T02:40:40;4.50;;;2.40;;
77080;SDS011;66009;53.150;18.160;2023-04-25T02:43:07;4.40;;;2.40;;
77080;SDS011;66009;53.150;18.160;2023-04-25T02:45:33;4.00;;;2.10;;
77080;SDS011;66009;53.150;18.160;2023-04-25T02:48:00;3.90;;;2.00;;
77080;SDS011;66009;53.150;18.160;2023-04-25T02:50:26;4.40;;;2.20;;
77080;SDS011;66009;53.150;18.160;2023-04-25T02:52:53;6.80;;;2.20;;
77080;SDS011;66009;53.150;18.160;2023-04-25T02:55:23;4.80;;;1.90;;
77080;SDS011;66009;53.150;18.160;2023-04-25T02:57:49;4.30;;;1.80;;
77080;SDS011;66009;53.150;18.160;2023-04-25T03:00:24;4.10;;;2.00;;
77080;SDS011;66009;53.150;18.160;2023-04-25T03:02:50;3.20;;;1.70;;
77080;SDS011;66009;53.150;18.160;2023-04-25T03:05:17;4.80;;;2.00;;
77080;SDS011;66009;53.150;18.160;2023-04-25T03:07:43;3.00;;;1.50;;
77080;SDS011;66009;53.150;18.160;2023-04-25T03:10:11;3.40;;;1.90;;
77080;SDS011;66009;53.150;18.160;2023-04-25T03:12:37;3.80;;;1.90;;
77080;SDS011;66009;53.150;18.160;2023-04-25T03:15:04;4.10;;;1.80;;
77080;SDS011;66009;53.150;18.160;2023-04-25T03:17:31;4.00;;;1.60;;
77080;SDS011;66009;53.150;18.160;2023-04-25T03:19:58;3.40;;;1.70;;
77080;SDS011;66009;53.150;18.160;2023-04-25T03:22:25;4.40;;;1.70;;
77080;SDS011;66009;53.150;18.160;2023-04-25T03:24:52;3.20;;;1.50;;
77080;SDS011;66009;53.150;18.160;2023-04-25T03:27:18;4.50;;;1.70;;
77080;SDS011;66009;53.150;18.160;2023-04-25T03:29:44;4.80;;;1.70;;
77080;SDS011;66009;53.150;18.160;2023-04-25T03:32:11;3.70;;;1.50;;
77080;SDS011;66009;53.150;18.160;2023-04-25T03:34:37;5.20;;;1.70;;
77080;SDS011;66009;53.150;18.160;2023-04-25T03:37:04;3.50;;;1.40;;
77080;SDS011;66009;53.150;18.160;2023-04-25T03:39:34;3.90;;;1.60;;
77080;SDS011;66009;53.150;18.160;2023-04-25T03:42:00;2.80;;;1.20;;
77080;SDS011;66009;53.150;18.160;2023-04-25T03:44:28;3.40;;;1.30;;
77080;SDS011;66009;53.150;18.160;2023-04-25T03:46:55;2.80;;;1.30;;
77080;SDS011;66009;53.150;18.160;2023-04-25T03:49:21;2.90;;;1.10;;
77080;SDS011;66009;53.150;18.160;2023-04-25T03:52:00;2.60;;;1.20;;
77080;SDS011;66009;53.150;18.160;2023-04-25T03:54:27;3.30;;;1.40;;
77080;SDS011;66009;53.150;18.160;2023-04-25T03:57:08;2.50;;;1.00;;
77080;SDS011;66009;53.150;18.160;2023-04-25T03:59:37;4.80;;;1.30;;
77080;SDS011;66009;53.150;18.160;2023-04-25T04:02:04;2.90;;;1.20;;
77080;SDS011;66009;53.150;18.160;2023-04-25T04:04:32;3.40;;;1.20;;
77080;SDS011;66009;53.150;18.160;2023-04-25T04:07:00;2.60;;;1.00;;
77080;SDS011;66009;53.150;18.160;2023-04-25T04:09:29;3.80;;;1.10;;
77080;SDS011;66009;53.150;18.160;2023-04-25T04:11:58;2.60;;;1.00;;
77080;SDS011;66009;53.150;18.160;2023-04-25T04:14:24;1.90;;;0.80;;
77080;SDS011;66009;53.150;18.160;2023-04-25T04:16:51;2.90;;;1.20;;
77080;SDS011;66009;53.150;18.160;2023-04-25T04:19:18;3.40;;;1.20;;
77080;SDS011;66009;53.150;18.160;2023-04-25T04:21:51;3.70;;;1.50;;
77080;SDS011;66009;53.150;18.160;2023-04-25T04:24:17;2.50;;;1.20;;
77080;SDS011;66009;53.150;18.160;2023-04-25T04:26:52;2.50;;;1.00;;
77080;SDS011;66009;53.150;18.160;2023-04-25T04:29:51;2.30;;;0.90;;
77080;SDS011;66009;53.150;18.160;2023-04-25T04:32:39;2.20;;;0.90;;
77080;SDS011;66009;53.150;18.160;2023-04-25T04:35:06;2.60;;;0.90;;
77080;SDS011;66009;53.150;18.160;2023-04-25T04:37:33;3.10;;;1.00;;
77080;SDS011;66009;53.150;18.160;2023-04-25T04:40:00;3.50;;;1.10;;
77080;SDS011;66009;53.150;18.160;2023-04-25T04:42:45;3.00;;;1.20;;
77080;SDS011;66009;53.150;18.160;2023-04-25T04:45:31;2.50;;;1.10;;
77080;SDS011;66009;53.150;18.160;2023-04-25T04:48:10;3.60;;;1.40;;
77080;SDS011;66009;53.150;18.160;2023-04-25T04:51:01;2.90;;;1.20;;
77080;SDS011;66009;53.150;18.160;2023-04-25T04:53:45;2.70;;;1.10;;
77080;SDS011;66009;53.150;18.160;2023-04-25T04:56:30;4.20;;;1.50;;
77080;SDS011;66009;53.150;18.160;2023-04-25T04:59:32;3.10;;;1.10;;
77080;SDS011;66009;53.150;18.160;2023-04-25T05:02:28;2.50;;;1.00;;
77080;SDS011;66009;53.150;18.160;2023-04-25T05:05:10;3.50;;;1.10;;
77080;SDS011;66009;53.150;18.160;2023-04-25T05:07:56;2.90;;;1.30;;
77080;SDS011;66009;53.150;18.160;2023-04-25T05:10:31;2.10;;;0.80;;
77080;SDS011;66009;53.150;18.160;2023-04-25T05:13:05;3.40;;;1.10;;
77080;SDS011;66009;53.150;18.160;2023-04-25T05:15:57;4.00;;;1.40;;
77080;SDS011;66009;53.150;18.160;2023-04-25T05:18:49;3.70;;;1.40;;
77080;SDS011;66009;53.150;18.160;2023-04-25T05:21:42;4.30;;;1.30;;
77080;SDS011;66009;53.150;18.160;2023-04-25T05:24:29;3.90;;;1.40;;
77080;SDS011;66009;53.150;18.160;2023-04-25T05:27:18;3.30;;;1.70;;
77080;SDS011;66009;53.150;18.160;2023-04-25T05:29:58;4.00;;;1.60;;
77080;SDS011;66009;53.150;18.160;2023-04-25T05:32:33;3.00;;;1.30;;
77080;SDS011;66009;53.150;18.160;2023-04-25T05:34:59;3.90;;;1.40;;
77080;SDS011;66009;53.150;18.160;2023-04-25T05:37:29;3.20;;;1.40;;
77080;SDS011;66009;53.150;18.160;2023-04-25T05:40:11;3.40;;;1.30;;
77080;SDS011;66009;53.150;18.160;2023-04-25T05:42:56;3.00;;;1.50;;
77080;SDS011;66009;53.150;18.160;2023-04-25T05:45:28;4.90;;;1.90;;
77080;SDS011;66009;53.150;18.160;2023-04-25T05:48:07;3.40;;;1.50;;
77080;SDS011;66009;53.150;18.160;2023-04-25T05:50:57;4.70;;;1.80;;
77080;SDS011;66009;53.150;18.160;2023-04-25T05:53:46;4.70;;;1.80;;
77080;SDS011;66009;53.150;18.160;2023-04-25T05:56:14;3.70;;;1.80;;
77080;SDS011;66009;53.150;18.160;2023-04-25T05:58:40;5.10;;;1.40;;
77080;SDS011;66009;53.150;18.160;2023-04-25T06:01:07;4.30;;;1.80;;
77080;SDS011;66009;53.150;18.160;2023-04-25T06:03:35;4.50;;;1.60;;
77080;SDS011;66009;53.150;18.160;2023-04-25T06:06:01;4.80;;;1.80;;
77080;SDS011;66009;53.150;18.160;2023-04-25T06:08:28;4.40;;;1.90;;
77080;SDS011;66009;53.150;18.160;2023-04-25T06:10:55;4.40;;;1.80;;
77080;SDS011;66009;53.150;18.160;2023-04-25T06:13:22;3.80;;;2.00;;
77080;SDS011;66009;53.150;18.160;2023-04-25T06:15:49;4.50;;;1.80;;
77080;SDS011;66009;53.150;18.160;2023-04-25T06:18:16;4.40;;;1.70;;
77080;SDS011;66009;53.150;18.160;2023-04-25T06:20:42;4.10;;;2.10;;
77080;SDS011;66009;53.150;18.160;2023-04-25T06:23:09;3.90;;;2.00;;
77080;SDS011;66009;53.150;18.160;2023-04-25T06:25:45;3.40;;;1.80;;
77080;SDS011;66009;53.150;18.160;2023-04-25T06:28:12;5.40;;;2.20;;
77080;SDS011;66009;53.150;18.160;2023-04-25T06:30:38;3.60;;;1.80;;
77080;SDS011;66009;53.150;18.160;2023-04-25T06:33:08;3.80;;;1.80;;
77080;SDS011;66009;53.150;18.160;2023-04-25T06:35:35;3.90;;;1.90;;
77080;SDS011;66009;53.150;18.160;2023-04-25T06:38:01;3.30;;;1.40;;
77080;SDS011;66009;53.150;18.160;2023-04-25T06:40:29;4.40;;;1.70;;
77080;SDS011;66009;53.150;18.160;2023-04-25T06:42:56;3.80;;;1.80;;
77080;SDS011;66009;53.150;18.160;2023-04-25T06:45:43;5.70;;;1.90;;
77080;SDS011;66009;53.150;18.160;2023-04-25T06:48:10;3.70;;;2.00;;
77080;SDS011;66009;53.150;18.160;2023-04-25T06:50:36;5.70;;;2.20;;
77080;SDS011;66009;53.150;18.160;2023-04-25T06:53:03;4.40;;;1.70;;
77080;SDS011;66009;53.150;18.160;2023-04-25T06:55:29;3.80;;;2.10;;
77080;SDS011;66009;53.150;18.160;2023-04-25T06:58:13;4.00;;;1.80;;
77080;SDS011;66009;53.150;18.160;2023-04-25T07:00:58;3.60;;;1.70;;
77080;SDS011;66009;53.150;18.160;2023-04-25T07:03:26;4.00;;;1.80;;
77080;SDS011;66009;53.150;18.160;2023-04-25T07:05:56;4.40;;;2.00;;
77080;SDS011;66009;53.150;18.160;2023-04-25T07:08:23;4.40;;;2.00;;
77080;SDS011;66009;53.150;18.160;2023-04-25T07:10:50;5.00;;;2.10;;
77080;SDS011;66009;53.150;18.160;2023-04-25T07:13:16;5.80;;;2.00;;
77080;SDS011;66009;53.150;18.160;2023-04-25T07:15:44;4.90;;;2.20;;
77080;SDS011;66009;53.150;18.160;2023-04-25T07:18:10;6.50;;;3.70;;
77080;SDS011;66009;53.150;18.160;2023-04-25T07:20:37;5.40;;;3.10;;
77080;SDS011;66009;53.150;18.160;2023-04-25T07:23:04;4.10;;;2.00;;
77080;SDS011;66009;53.150;18.160;2023-04-25T07:25:30;3.90;;;1.90;;
77080;SDS011;66009;53.150;18.160;2023-04-25T07:27:57;3.60;;;1.80;;
77080;SDS011;66009;53.150;18.160;2023-04-25T07:30:23;4.20;;;2.00;;
77080;SDS011;66009;53.150;18.160;2023-04-25T07:32:50;4.00;;;1.80;;
77080;SDS011;66009;53.150;18.160;2023-04-25T07:35:16;4.20;;;1.70;;
77080;SDS011;66009;53.150;18.160;2023-04-25T07:37:43;4.00;;;1.50;;
77080;SDS011;66009;53.150;18.160;2023-04-25T07:40:15;3.70;;;1.70;;
77080;SDS011;66009;53.150;18.160;2023-04-25T07:42:45;3.60;;;1.80;;
77080;SDS011;66009;53.150;18.160;2023-04-25T07:45:13;4.10;;;1.70;;
77080;SDS011;66009;53.150;18.160;2023-04-25T07:47:40;4.00;;;1.50;;
77080;SDS011;66009;53.150;18.160;2023-04-25T07:50:06;4.70;;;1.90;;
77080;SDS011;66009;53.150;18.160;2023-04-25T07:52:33;3.90;;;1.60;;
77080;SDS011;66009;53.150;18.160;2023-04-25T07:55:07;3.90;;;1.50;;
77080;SDS011;66009;53.150;18.160;2023-04-25T07:57:51;4.70;;;1.50;;
77080;SDS011;66009;53.150;18.160;2023-04-25T08:00:18;2.90;;;1.50;;
77080;SDS011;66009;53.150;18.160;2023-04-25T08:02:45;4.20;;;1.50;;
77080;SDS011;66009;53.150;18.160;2023-04-25T08:05:14;5.70;;;1.60;;
77080;SDS011;66009;53.150;18.160;2023-04-25T08:07:43;4.40;;;1.50;;
77080;SDS011;66009;53.150;18.160;2023-04-25T08:10:10;2.70;;;1.30;;
77080;SDS011;66009;53.150;18.160;2023-04-25T08:12:37;3.10;;;1.30;;
77080;SDS011;66009;53.150;18.160;2023-04-25T08:15:04;2.80;;;1.10;;
77080;SDS011;66009;53.150;18.160;2023-04-25T08:17:33;4.40;;;1.80;;
77080;SDS011;66009;53.150;18.160;2023-04-25T08:20:00;3.60;;;1.70;;
77080;SDS011;66009;53.150;18.160;2023-04-25T08:22:29;3.90;;;1.60;;
77080;SDS011;66009;53.150;18.160;2023-04-25T08:25:12;5.90;;;2.30;;
77080;SDS011;66009;53.150;18.160;2023-04-25T08:27:38;3.40;;;1.50;;
77080;SDS011;66009;53.150;18.160;2023-04-25T08:30:05;4.30;;;1.60;;
77080;SDS011;66009;53.150;18.160;2023-04-25T08:32:32;4.10;;;1.60;;
77080;SDS011;66009;53.150;18.160;2023-04-25T08:35:14;10.20;;;6.50;;
77080;SDS011;66009;53.150;18.160;2023-04-25T08:37:40;5.30;;;2.20;;
77080;SDS011;66009;53.150;18.160;2023-04-25T08:40:14;4.40;;;1.80;;
77080;SDS011;66009;53.150;18.160;2023-04-25T08:42:51;4.70;;;1.80;;
77080;SDS011;66009;53.150;18.160;2023-04-25T08:45:19;3.50;;;1.60;;
77080;SDS011;66009;53.150;18.160;2023-04-25T08:47:46;5.80;;;2.30;;
77080;SDS011;66009;53.150;18.160;2023-04-25T08:50:14;6.90;;;2.30;;
77080;SDS011;66009;53.150;18.160;2023-04-25T08:52:45;4.50;;;2.10;;
77080;SDS011;66009;53.150;18.160;2023-04-25T08:55:15;4.30;;;1.90;;
77080;SDS011;66009;53.150;18.160;2023-04-25T08:57:42;3.70;;;1.90;;
77080;SDS011;66009;53.150;18.160;2023-04-25T09:00:12;3.60;;;1.90;;
77080;SDS011;66009;53.150;18.160;2023-04-25T09:02:40;4.30;;;1.80;;
77080;SDS011;66009;53.150;18.160;2023-04-25T09:05:08;8.20;;;2.30;;
77080;SDS011;66009;53.150;18.160;2023-04-25T09:07:36;5.80;;;2.20;;
77080;SDS011;66009;53.150;18.160;2023-04-25T09:10:02;5.00;;;1.80;;
77080;SDS011;66009;53.150;18.160;2023-04-25T09:12:30;4.90;;;2.00;;
77080;SDS011;66009;53.150;18.160;2023-04-25T09:15:05;5.00;;;1.70;;
77080;SDS011;66009;53.150;18.160;2023-04-25T09:18:01;4.20;;;1.80;;
77080;SDS011;66009;53.150;18.160;2023-04-25T09:20:32;3.10;;;1.60;;
77080;SDS011;66009;53.150;18.160;2023-04-25T09:23:07;3.70;;;1.70;;
77080;SDS011;66009;53.150;18.160;2023-04-25T09:25:36;4.40;;;1.40;;
77080;SDS011;66009;53.150;18.160;2023-04-25T09:28:05;4.80;;;2.00;;
77080;SDS011;66009;53.150;18.160;2023-04-25T09:30:33;11.10;;;2.30;;
77080;SDS011;66009;53.150;18.160;2023-04-25T09:33:18;3.90;;;1.80;;
77080;SDS011;66009;53.150;18.160;2023-04-25T09:35:48;4.20;;;1.40;;
77080;SDS011;66009;53.150;18.160;2023-04-25T09:38:26;3.30;;;1.30;;
77080;SDS011;66009;53.150;18.160;2023-04-25T09:41:07;6.30;;;1.70;;
77080;SDS011;66009;53.150;18.160;2023-04-25T09:43:38;3.50;;;1.50;;
77080;SDS011;66009;53.150;18.160;2023-04-25T09:46:08;3.70;;;1.70;;
77080;SDS011;66009;53.150;18.160;2023-04-25T09:48:38;4.70;;;1.60;;
77080;SDS011;66009;53.150;18.160;2023-04-25T09:51:05;7.00;;;2.00;;
77080;SDS011;66009;53.150;18.160;2023-04-25T09:53:36;3.50;;;1.50;;
77080;SDS011;66009;53.150;18.160;2023-04-25T09:56:11;3.70;;;1.60;;
77080;SDS011;66009;53.150;18.160;2023-04-25T09:58:38;3.40;;;1.30;;
77080;SDS011;66009;53.150;18.160;2023-04-25T10:01:06;4.00;;;1.80;;
77080;SDS011;66009;53.150;18.160;2023-04-25T10:03:38;3.30;;;1.30;;
77080;SDS011;66009;53.150;18.160;2023-04-25T10:06:28;3.00;;;1.40;;
77080;SDS011;66009;53.150;18.160;2023-04-25T10:08:55;4.20;;;1.70;;
77080;SDS011;66009;53.150;18.160;2023-04-25T10:11:22;3.60;;;1.50;;
77080;SDS011;66009;53.150;18.160;2023-04-25T10:13:50;3.30;;;1.50;;
77080;SDS011;66009;53.150;18.160;2023-04-25T10:16:17;4.10;;;1.60;;
77080;SDS011;66009;53.150;18.160;2023-04-25T10:18:44;3.50;;;1.50;;
77080;SDS011;66009;53.150;18.160;2023-04-25T10:21:11;5.00;;;2.00;;
77080;SDS011;66009;53.150;18.160;2023-04-25T10:23:38;9.10;;;2.80;;
77080;SDS011;66009;53.150;18.160;2023-04-25T10:26:04;5.70;;;2.30;;
77080;SDS011;66009;53.150;18.160;2023-04-25T10:28:45;5.40;;;2.60;;
77080;SDS011;66009;53.150;18.160;2023-04-25T10:31:17;3.70;;;1.90;;
77080;SDS011;66009;53.150;18.160;2023-04-25T10:33:43;4.50;;;2.10;;
77080;SDS011;66009;53.150;18.160;2023-04-25T10:36:11;4.30;;;1.70;;
77080;SDS011;66009;53.150;18.160;2023-04-25T10:38:37;3.90;;;1.50;;
77080;SDS011;66009;53.150;18.160;2023-04-25T10:41:09;4.90;;;1.80;;
77080;SDS011;66009;53.150;18.160;2023-04-25T10:43:43;4.40;;;1.70;;
77080;SDS011;66009;53.150;18.160;2023-04-25T10:48:43;5.60;;;1.60;;
77080;SDS011;66009;53.150;18.160;2023-04-25T10:51:12;3.50;;;1.40;;
77080;SDS011;66009;53.150;18.160;2023-04-25T10:53:43;3.80;;;1.60;;
77080;SDS011;66009;53.150;18.160;2023-04-25T10:56:10;3.10;;;1.20;;
77080;SDS011;66009;53.150;18.160;2023-04-25T10:58:41;3.50;;;1.10;;
77080;SDS011;66009;53.150;18.160;2023-04-25T11:01:07;4.90;;;1.70;;
77080;SDS011;66009;53.150;18.160;2023-04-25T11:03:43;5.40;;;1.90;;
77080;SDS011;66009;53.150;18.160;2023-04-25T11:06:23;4.80;;;1.90;;
77080;SDS011;66009;53.150;18.160;2023-04-25T11:11:18;3.50;;;1.30;;
77080;SDS011;66009;53.150;18.160;2023-04-25T11:13:48;16.90;;;2.70;;
77080;SDS011;66009;53.150;18.160;2023-04-25T11:16:15;3.60;;;1.60;;
77080;SDS011;66009;53.150;18.160;2023-04-25T11:18:42;3.40;;;1.30;;
77080;SDS011;66009;53.150;18.160;2023-04-25T11:21:08;2.80;;;1.20;;
77080;SDS011;66009;53.150;18.160;2023-04-25T11:23:35;3.20;;;1.40;;
77080;SDS011;66009;53.150;18.160;2023-04-25T11:26:03;4.40;;;1.70;;
77080;SDS011;66009;53.150;18.160;2023-04-25T11:28:30;3.30;;;1.70;;
77080;SDS011;66009;53.150;18.160;2023-04-25T11:30:56;5.30;;;1.70;;
77080;SDS011;66009;53.150;18.160;2023-04-25T11:33:23;9.70;;;2.30;;
77080;SDS011;66009;53.150;18.160;2023-04-25T11:35:54;3.00;;;1.70;;
77080;SDS011;66009;53.150;18.160;2023-04-25T11:38:22;3.30;;;1.70;;
77080;SDS011;66009;53.150;18.160;2023-04-25T11:40:49;4.20;;;1.80;;
77080;SDS011;66009;53.150;18.160;2023-04-25T11:43:16;4.20;;;1.80;;
77080;SDS011;66009;53.150;18.160;2023-04-25T11:45:45;5.10;;;2.10;;
77080;SDS011;66009;53.150;18.160;2023-04-25T11:48:12;4.50;;;1.90;;
77080;SDS011;66009;53.150;18.160;2023-04-25T11:50:39;4.70;;;2.30;;
77080;SDS011;66009;53.150;18.160;2023-04-25T11:53:06;3.50;;;2.00;;
77080;SDS011;66009;53.150;18.160;2023-04-25T11:55:33;6.00;;;2.20;;
77080;SDS011;66009;53.150;18.160;2023-04-25T11:58:00;4.10;;;2.20;;
77080;SDS011;66009;53.150;18.160;2023-04-25T12:00:28;3.30;;;1.80;;
77080;SDS011;66009;53.150;18.160;2023-04-25T12:02:55;3.60;;;1.70;;
77080;SDS011;66009;53.150;18.160;2023-04-25T12:05:24;5.50;;;2.60;;
77080;SDS011;66009;53.150;18.160;2023-04-25T12:07:51;4.70;;;2.10;;
77080;SDS011;66009;53.150;18.160;2023-04-25T12:10:18;3.80;;;1.90;;
77080;SDS011;66009;53.150;18.160;2023-04-25T12:12:45;5.20;;;2.10;;
77080;SDS011;66009;53.150;18.160;2023-04-25T12:15:12;5.30;;;1.80;;
77080;SDS011;66009;53.150;18.160;2023-04-25T12:17:41;3.20;;;1.80;;
77080;SDS011;66009;53.150;18.160;2023-04-25T12:20:18;3.50;;;1.70;;
77080;SDS011;66009;53.150;18.160;2023-04-25T12:22:46;4.60;;;1.90;;
77080;SDS011;66009;53.150;18.160;2023-04-25T12:25:13;5.00;;;2.00;;
77080;SDS011;66009;53.150;18.160;2023-04-25T12:28:09;4.50;;;2.30;;
77080;SDS011;66009;53.150;18.160;2023-04-25T12:30:52;7.20;;;2.20;;
77080;SDS011;66009;53.150;18.160;2023-04-25T12:33:18;7.10;;;2.60;;
77080;SDS011;66009;53.150;18.160;2023-04-25T12:35:44;3.70;;;1.80;;
77080;SDS011;66009;53.150;18.160;2023-04-25T12:38:11;4.80;;;1.70;;
77080;SDS011;66009;53.150;18.160;2023-04-25T12:40:46;4.80;;;1.90;;
77080;SDS011;66009;53.150;18.160;2023-04-25T12:43:12;4.20;;;2.00;;
77080;SDS011;66009;53.150;18.160;2023-04-25T12:45:39;4.60;;;1.90;;
77080;SDS011;66009;53.150;18.160;2023-04-25T12:48:06;5.80;;;2.30;;
77080;SDS011;66009;53.150;18.160;2023-04-25T12:50:32;4.10;;;2.10;;
77080;SDS011;66009;53.150;18.160;2023-04-25T12:52:59;5.60;;;2.20;;
77080;SDS011;66009;53.150;18.160;2023-04-25T12:55:26;3.40;;;1.50;;
77080;SDS011;66009;53.150;18.160;2023-04-25T12:57:52;5.20;;;1.80;;
77080;SDS011;66009;53.150;18.160;2023-04-25T13:00:19;5.10;;;2.20;;
77080;SDS011;66009;53.150;18.160;2023-04-25T13:02:46;4.60;;;2.20;;
77080;SDS011;66009;53.150;18.160;2023-04-25T13:05:13;4.40;;;1.80;;
77080;SDS011;66009;53.150;18.160;2023-04-25T13:07:39;4.00;;;1.80;;
77080;SDS011;66009;53.150;18.160;2023-04-25T13:10:06;8.20;;;1.90;;
77080;SDS011;66009;53.150;18.160;2023-04-25T13:12:32;4.00;;;1.90;;
77080;SDS011;66009;53.150;18.160;2023-04-25T13:14:59;6.10;;;1.80;;
77080;SDS011;66009;53.150;18.160;2023-04-25T13:17:25;2.80;;;1.30;;
77080;SDS011;66009;53.150;18.160;2023-04-25T13:19:52;4.30;;;1.60;;
77080;SDS011;66009;53.150;18.160;2023-04-25T13:22:18;3.80;;;1.50;;
77080;SDS011;66009;53.150;18.160;2023-04-25T13:24:46;5.80;;;1.50;;
77080;SDS011;66009;53.150;18.160;2023-04-25T13:27:13;2.90;;;1.30;;
77080;SDS011;66009;53.150;18.160;2023-04-25T13:29:39;4.50;;;1.70;;
77080;SDS011;66009;53.150;18.160;2023-04-25T13:32:07;4.80;;;1.90;;
77080;SDS011;66009;53.150;18.160;2023-04-25T13:34:33;5.60;;;2.40;;
77080;SDS011;66009;53.150;18.160;2023-04-25T13:37:00;8.50;;;1.80;;
77080;SDS011;66009;53.150;18.160;2023-04-25T13:39:27;5.10;;;2.10;;
77080;SDS011;66009;53.150;18.160;2023-04-25T13:41:53;4.40;;;2.20;;
77080;SDS011;66009;53.150;18.160;2023-04-25T13:44:19;11.80;;;2.60;;
77080;SDS011;66009;53.150;18.160;2023-04-25T13:46:46;5.40;;;2.20;;
77080;SDS011;66009;53.150;18.160;2023-04-25T13:49:12;10.00;;;2.10;;
77080;SDS011;66009;53.150;18.160;2023-04-25T13:51:39;3.90;;;1.90;;
77080;SDS011;66009;53.150;18.160;2023-04-25T13:54:06;4.50;;;1.80;;
77080;SDS011;66009;53.150;18.160;2023-04-25T13:56:33;4.60;;;1.90;;
77080;SDS011;66009;53.150;18.160;2023-04-25T13:59:00;4.40;;;1.80;;
77080;SDS011;66009;53.150;18.160;2023-04-25T14:01:26;4.10;;;1.80;;
77080;SDS011;66009;53.150;18.160;2023-04-25T14:03:54;3.30;;;1.90;;
77080;SDS011;66009;53.150;18.160;2023-04-25T14:06:20;5.50;;;2.10;;
77080;SDS011;66009;53.150;18.160;2023-04-25T14:08:49;4.60;;;2.10;;
77080;SDS011;66009;53.150;18.160;2023-04-25T14:11:16;12.50;;;2.60;;
77080;SDS011;66009;53.150;18.160;2023-04-25T14:13:44;5.20;;;2.30;;
77080;SDS011;66009;53.150;18.160;2023-04-25T14:16:11;4.70;;;2.10;;
77080;SDS011;66009;53.150;18.160;2023-04-25T14:18:37;5.90;;;2.70;;
77080;SDS011;66009;53.150;18.160;2023-04-25T14:21:04;7.60;;;2.80;;
77080;SDS011;66009;53.150;18.160;2023-04-25T14:23:31;5.90;;;2.50;;
77080;SDS011;66009;53.150;18.160;2023-04-25T14:25:57;9.50;;;3.00;;
77080;SDS011;66009;53.150;18.160;2023-04-25T14:28:24;6.70;;;2.80;;
77080;SDS011;66009;53.150;18.160;2023-04-25T14:30:50;5.40;;;2.60;;
77080;SDS011;66009;53.150;18.160;2023-04-25T14:33:17;5.10;;;2.60;;
77080;SDS011;66009;53.150;18.160;2023-04-25T14:35:44;7.00;;;2.50;;
77080;SDS011;66009;53.150;18.160;2023-04-25T14:38:10;5.10;;;2.40;;
77080;SDS011;66009;53.150;18.160;2023-04-25T14:40:37;7.00;;;2.30;;
77080;SDS011;66009;53.150;18.160;2023-04-25T14:43:04;6.80;;;2.20;;
77080;SDS011;66009;53.150;18.160;2023-04-25T14:45:30;5.00;;;2.50;;
77080;SDS011;66009;53.150;18.160;2023-04-25T14:47:57;3.70;;;2.00;;
77080;SDS011;66009;53.150;18.160;2023-04-25T14:50:23;4.50;;;2.50;;
77080;SDS011;66009;53.150;18.160;2023-04-25T14:52:50;5.40;;;2.00;;